Alpha Friendship — SVAV9 — position and weather

sailwx.info

Track history (hours):
 
Tides and Currents Weather Stations Pressure Air Temp Water Temp Dewpoint Dewpoint Depression Visibility Wind Speed Wind Dir Waves Ship Positions

Alpha Friendship

Last reported at 2015-Mar-04 05:04 UTC. Time now 2015-Mar-06 02:44 UTC.
Position N 22°56' E 119°54'.

Length 280 m; draft 11 m.

Type: Cargo ship. MMSI: 240965000.

Date/timePositionNaut miles runAvg speedWind from/ knotsBaromVisibWave heightAir tempDewpointWater temp
2015-Mar-04 05:04N 22°56' E 119°54'611.1
2015-Mar-04 04:33N 22°50' E 119°57'1211.8
2015-Mar-04 03:33N 22°39' E 120°01'1110.5
2015-Mar-04 02:33N 22°33' E 120°10'9 9.0
2015-Mar-04 01:33N 22°33' E 120°20'1 0.7
2015-Mar-04 00:21N 22°32' E 120°21'0 0.0
2015-Mar-03 23:21N 22°32' E 120°21'0 0.0
2015-Mar-03 22:21N 22°32' E 120°21'0 0.0
2015-Mar-03 13:33N 22°32' E 120°21'0 0.0
2015-Mar-03 07:27N 22°32' E 120°21'0 0.0
2015-Mar-03 06:27N 22°33' E 120°21'0 0.0
2015-Mar-03 00:09N 22°33' E 120°21'0 0.0
2015-Mar-02 19:33N 22°33' E 120°21'0 0.0
2015-Mar-02 17:33N 22°33' E 120°21'0 0.0
2015-Mar-02 09:21N 22°33' E 120°21'0 0.0
2015-Mar-02 08:33N 22°33' E 120°21'0 0.0
2015-Mar-02 00:33N 22°33' E 120°21'0 0.0
2015-Mar-01 23:21N 22°33' E 120°21'0 0.0
2015-Mar-01 22:33N 22°33' E 120°21'0 0.0
2015-Mar-01 21:33N 22°33' E 120°21'0 0.0
2015-Mar-01 18:33N 22°33' E 120°21'0 0.0
2015-Mar-01 15:21N 22°33' E 120°21'0 0.0
2015-Mar-01 14:33N 22°33' E 120°21'0 0.0
2015-Mar-01 09:15N 22°33' E 120°21'0 0.0
2015-Mar-01 07:33N 22°33' E 120°21'5 5.2
2015-Mar-01 06:33N 22°32' E 120°15'0 0.2
2015-Mar-01 05:23N 22°31' E 120°15'0 0.0
2015-Mar-01 04:29N 22°31' E 120°15'0 0.1
2015-Mar-01 03:29N 22°31' E 120°15'0 0.1
2015-Mar-01 02:33N 22°31' E 120°15'7 7.0
2015-Mar-01 01:33N 22°24' E 120°15'1110.9
2015-Mar-01 00:33N 22°14' E 120°17'  
Track history (hours):
 
Tides and Currents Weather Stations Pressure Air Temp Water Temp Dewpoint Dewpoint Depression Visibility Wind Speed Wind Dir Waves Ship Positions

Alpha Friendship

Last reported at 2015-Mar-04 05:04 UTC. Time now 2015-Mar-06 02:44 UTC.
Position N 22°56' E 119°54'.

Length 280 m; draft 11 m.

Type: Cargo ship. MMSI: 240965000.

Date/timePositionNaut miles runAvg speedWind from/ knotsBaromVisibWave heightAir tempDewpointWater temp
2015-Mar-04 05:04N 22°56' E 119°54'611.1
2015-Mar-04 04:33N 22°50' E 119°57'1211.8
2015-Mar-04 03:33N 22°39' E 120°01'1110.5
2015-Mar-04 02:33N 22°33' E 120°10'9 9.0
2015-Mar-04 01:33N 22°33' E 120°20'1 0.7
2015-Mar-04 00:21N 22°32' E 120°21'0 0.0
2015-Mar-03 23:21N 22°32' E 120°21'0 0.0
2015-Mar-03 22:21N 22°32' E 120°21'0 0.0
2015-Mar-03 13:33N 22°32' E 120°21'0 0.0
2015-Mar-03 07:27N 22°32' E 120°21'0 0.0
2015-Mar-03 06:27N 22°33' E 120°21'0 0.0
2015-Mar-03 00:09N 22°33' E 120°21'0 0.0
2015-Mar-02 19:33N 22°33' E 120°21'0 0.0
2015-Mar-02 17:33N 22°33' E 120°21'0 0.0
2015-Mar-02 09:21N 22°33' E 120°21'0 0.0
2015-Mar-02 08:33N 22°33' E 120°21'0 0.0
2015-Mar-02 00:33N 22°33' E 120°21'0 0.0
2015-Mar-01 23:21N 22°33' E 120°21'0 0.0
2015-Mar-01 22:33N 22°33' E 120°21'0 0.0
2015-Mar-01 21:33N 22°33' E 120°21'0 0.0
2015-Mar-01 18:33N 22°33' E 120°21'0 0.0
2015-Mar-01 15:21N 22°33' E 120°21'0 0.0
2015-Mar-01 14:33N 22°33' E 120°21'0 0.0
2015-Mar-01 09:15N 22°33' E 120°21'0 0.0
2015-Mar-01 07:33N 22°33' E 120°21'5 5.2
2015-Mar-01 06:33N 22°32' E 120°15'0 0.2
2015-Mar-01 05:23N 22°31' E 120°15'0 0.0
2015-Mar-01 04:29N 22°31' E 120°15'0 0.1
2015-Mar-01 03:29N 22°31' E 120°15'0 0.1
2015-Mar-01 02:33N 22°31' E 120°15'7 7.0
2015-Mar-01 01:33N 22°24' E 120°15'1110.9
2015-Mar-01 00:33N 22°14' E 120°17'  

Dump ship's entire track history